createdAt,value
2023-10-20T00:00:48.538Z,82.5
2023-10-20T00:01:49.890Z,82.5
2023-10-20T00:02:51.087Z,82.5
2023-10-20T00:03:52.264Z,82.5
2023-10-20T00:04:53.422Z,82.5
2023-10-20T00:05:54.596Z,82.5
2023-10-20T00:06:55.759Z,82.5
2023-10-20T00:07:56.971Z,82.5
2023-10-20T00:08:58.119Z,82.5
2023-10-20T00:09:59.286Z,82.5
2023-10-20T00:11:00.471Z,82.5
2023-10-20T00:12:01.616Z,82.5
2023-10-20T00:13:02.780Z,82.5
2023-10-20T00:14:04.016Z,82.5
2023-10-20T00:15:05.174Z,82.5
2023-10-20T00:16:06.463Z,82.5
2023-10-20T00:17:07.927Z,82.5
2023-10-20T00:18:09.198Z,82.5
2023-10-20T00:19:10.382Z,82.5
2023-10-20T00:20:11.752Z,82.5
2023-10-20T00:21:12.968Z,82.5
2023-10-20T00:22:14.136Z,82.6
2023-10-20T00:23:15.416Z,82.5
2023-10-20T00:24:16.562Z,82.5
2023-10-20T00:25:17.726Z,82.5
2023-10-20T00:26:18.943Z,82.5
2023-10-20T00:27:20.123Z,82.6
2023-10-20T00:28:21.287Z,82.5
2023-10-20T00:29:22.580Z,82.6
2023-10-20T00:30:23.723Z,82.6
2023-10-20T00:31:25.017Z,82.6
2023-10-20T00:32:26.497Z,82.6
2023-10-20T00:33:27.682Z,82.6
2023-10-20T00:34:28.848Z,82.6
2023-10-20T00:35:30.089Z,82.6
2023-10-20T00:36:31.232Z,82.6
2023-10-20T00:37:32.455Z,82.6
2023-10-20T00:38:33.719Z,82.6
2023-10-20T00:39:34.888Z,82.6
2023-10-20T00:40:36.065Z,82.6
2023-10-20T00:41:37.463Z,82.5
2023-10-20T00:42:38.653Z,82.5
2023-10-20T00:43:40.099Z,82.5
2023-10-20T00:44:41.393Z,82.5
2023-10-20T00:45:42.583Z,82.5
2023-10-20T00:46:43.720Z,82.6
2023-10-20T00:47:45.181Z,82.6
2023-10-20T00:48:46.640Z,82.6
2023-10-20T00:49:47.828Z,82.6
2023-10-20T00:50:48.979Z,82.6
2023-10-20T00:51:50.135Z,82.6
2023-10-20T00:52:51.401Z,82.6
2023-10-20T00:53:52.586Z,82.6
2023-10-20T00:54:53.755Z,82.6
2023-10-20T00:55:54.930Z,82.6
2023-10-20T00:56:56.094Z,82.6
2023-10-20T00:57:57.282Z,82.6
2023-10-20T00:58:58.479Z,82.6
2023-10-20T00:59:59.639Z,82.7
2023-10-20T01:01:01.020Z,82.7
2023-10-20T01:02:02.335Z,82.7
2023-10-20T01:03:03.960Z,82.7
2023-10-20T01:04:05.418Z,82.7
2023-10-20T01:05:06.700Z,82.7
2023-10-20T01:06:07.884Z,82.7
2023-10-20T01:07:09.030Z,82.7
2023-10-20T01:08:10.290Z,82.7
2023-10-20T01:09:12.079Z,82.7
2023-10-20T01:10:13.281Z,82.7
2023-10-20T01:11:14.471Z,82.7
2023-10-20T01:12:15.627Z,82.8
2023-10-20T01:13:16.789Z,82.7
2023-10-20T01:14:18.063Z,82.8
2023-10-20T01:15:19.255Z,82.8
2023-10-20T01:16:20.495Z,82.8
2023-10-20T01:17:21.779Z,82.8
2023-10-20T01:18:23.144Z,82.8
2023-10-20T01:19:24.373Z,82.8
2023-10-20T01:20:25.596Z,82.8
2023-10-20T01:21:26.763Z,82.8
2023-10-20T01:22:27.931Z,82.8
2023-10-20T01:23:29.197Z,82.8
2023-10-20T01:24:30.396Z,82.8
2023-10-20T01:25:31.570Z,82.8
2023-10-20T01:26:32.823Z,82.8
2023-10-20T01:27:33.997Z,82.8
2023-10-20T01:28:35.156Z,82.8
2023-10-20T01:29:36.416Z,82.8
2023-10-20T01:30:37.623Z,82.8
2023-10-20T01:31:38.761Z,82.8
2023-10-20T01:32:40.123Z,82.8
2023-10-20T01:33:41.448Z,82.9
2023-10-20T01:34:42.612Z,82.9
2023-10-20T01:35:43.860Z,82.9
2023-10-20T01:36:45.007Z,82.9
2023-10-20T01:37:46.179Z,82.9
2023-10-20T01:38:47.341Z,82.9
2023-10-20T01:39:48.506Z,82.9
2023-10-20T01:40:49.672Z,82.9
2023-10-20T01:41:50.892Z,82.9
2023-10-20T01:42:52.083Z,82.9
2023-10-20T01:43:53.263Z,82.9
2023-10-20T01:44:54.435Z,82.9
2023-10-20T01:45:55.616Z,82.9
2023-10-20T01:46:56.910Z,82.9
2023-10-20T01:47:58.300Z,82.9
2023-10-20T01:48:59.497Z,83
2023-10-20T01:50:00.733Z,83
2023-10-20T01:51:01.879Z,83
2023-10-20T01:52:03.050Z,83
2023-10-20T01:53:04.390Z,83
2023-10-20T01:54:05.559Z,83
2023-10-20T01:55:06.820Z,83
2023-10-20T01:56:08.306Z,83
2023-10-20T01:57:09.643Z,83
2023-10-20T01:58:10.807Z,83
2023-10-20T01:59:12.122Z,83
2023-10-20T02:00:13.279Z,83
2023-10-20T02:01:14.586Z,83
2023-10-20T02:02:15.970Z,83
2023-10-20T02:03:17.581Z,83.1
2023-10-20T02:04:18.832Z,83.1
2023-10-20T02:05:20.031Z,83.1
2023-10-20T02:06:21.194Z,83.1
2023-10-20T02:07:22.358Z,83.1
2023-10-20T02:08:23.732Z,83.1
2023-10-20T02:09:24.916Z,83.1
2023-10-20T02:10:26.143Z,83.1
2023-10-20T02:11:27.404Z,83.1
2023-10-20T02:12:28.584Z,83.1
2023-10-20T02:13:29.752Z,83.1
2023-10-20T02:14:31.129Z,83.1
2023-10-20T02:15:32.367Z,83.1
2023-10-20T02:16:33.685Z,83.1
2023-10-20T02:17:35.078Z,83.1
2023-10-20T02:18:36.251Z,83.2
2023-10-20T02:19:37.432Z,83.2
2023-10-20T02:20:38.671Z,83.2
2023-10-20T02:21:39.847Z,83.2
2023-10-20T02:22:41.015Z,83.2
2023-10-20T02:23:42.270Z,83.2
2023-10-20T02:24:43.452Z,83.2
2023-10-20T02:25:44.610Z,83.2
2023-10-20T02:26:45.779Z,83.2
2023-10-20T02:27:46.941Z,83.2
2023-10-20T02:28:48.110Z,83.3
2023-10-20T02:29:49.281Z,83.3
2023-10-20T02:30:50.565Z,83.3
2023-10-20T02:31:51.744Z,83.3
2023-10-20T02:32:53.055Z,83.3
2023-10-20T02:33:54.239Z,83.3
2023-10-20T02:34:55.424Z,83.3
2023-10-20T02:35:56.620Z,83.3
2023-10-20T02:36:57.788Z,83.3
2023-10-20T02:37:58.945Z,83.3
2023-10-20T02:39:00.111Z,83.3
2023-10-20T02:40:01.304Z,83.4
2023-10-20T02:41:02.538Z,83.4
2023-10-20T02:42:03.703Z,83.4
2023-10-20T02:43:04.871Z,83.4
2023-10-20T02:44:06.070Z,83.4
2023-10-20T02:45:07.221Z,83.4
2023-10-20T02:46:08.457Z,83.4
2023-10-20T02:47:09.833Z,83.4
2023-10-20T02:48:11.207Z,83.4
2023-10-20T02:49:12.467Z,83.4
2023-10-20T02:50:13.740Z,83.4
2023-10-20T02:51:14.938Z,83.4
2023-10-20T02:52:16.092Z,83.4
2023-10-20T02:53:17.455Z,83.4
2023-10-20T02:54:18.628Z,83.4
2023-10-20T02:55:19.781Z,83.4
2023-10-20T02:56:21.250Z,83.4
2023-10-20T02:57:22.452Z,83.4
2023-10-20T02:58:23.617Z,83.4
2023-10-20T02:59:25.003Z,83.4
2023-10-20T03:00:26.182Z,83.4
2023-10-20T03:01:27.358Z,83.4
2023-10-20T03:02:29.191Z,83.4
2023-10-20T03:03:31.187Z,83.4
2023-10-20T03:04:33.612Z,83.4
2023-10-20T03:05:35.140Z,83.4
2023-10-20T03:06:36.297Z,83.4
2023-10-20T03:07:37.461Z,83.4
2023-10-20T03:08:38.792Z,83.4
2023-10-20T03:09:39.967Z,83.4
2023-10-20T03:10:41.157Z,83.4
2023-10-20T03:11:42.440Z,83.4
2023-10-20T03:12:43.597Z,83.4
2023-10-20T03:13:44.768Z,83.4
2023-10-20T03:14:45.999Z,83.4
2023-10-20T03:15:47.149Z,83.4
2023-10-20T03:16:48.490Z,83.4
2023-10-20T03:17:49.937Z,83.4
2023-10-20T03:18:51.124Z,83.4
2023-10-20T03:19:52.305Z,83.4
2023-10-20T03:20:53.459Z,83.4
2023-10-20T03:21:54.621Z,83.5
2023-10-20T03:22:55.788Z,83.5
2023-10-20T03:23:56.959Z,83.5
2023-10-20T03:24:58.115Z,83.5
2023-10-20T03:25:59.320Z,83.5
2023-10-20T03:27:00.756Z,83.5
2023-10-20T03:28:01.926Z,83.5
2023-10-20T03:29:03.153Z,83.5
2023-10-20T03:30:04.316Z,83.5
2023-10-20T03:31:05.490Z,83.5
2023-10-20T03:32:06.675Z,83.5
2023-10-20T03:33:08.008Z,83.5
2023-10-20T03:34:18.772Z,83.5
2023-10-20T03:35:20.022Z,83.5
2023-10-20T03:36:21.179Z,83.6
2023-10-20T03:37:22.347Z,83.5
2023-10-20T03:38:23.631Z,83.5
2023-10-20T03:39:24.784Z,83.5
2023-10-20T03:40:25.942Z,83.5
2023-10-20T03:41:27.545Z,83.5
2023-10-20T03:42:28.843Z,83.5
2023-10-20T03:43:30.006Z,83.5
2023-10-20T03:44:31.528Z,83.5
2023-10-20T03:45:32.787Z,83.5
2023-10-20T03:46:34.034Z,83.6
2023-10-20T03:47:35.380Z,83.6
2023-10-20T03:48:36.841Z,83.6
2023-10-20T03:49:37.994Z,83.6
2023-10-20T03:50:39.289Z,83.6
2023-10-20T03:51:40.477Z,83.6
2023-10-20T03:52:41.641Z,83.6
2023-10-20T03:53:43.135Z,83.6
2023-10-20T03:54:44.279Z,83.6
2023-10-20T03:55:45.447Z,83.6
2023-10-20T03:56:46.695Z,83.7
2023-10-20T03:57:47.879Z,83.7
2023-10-20T03:58:49.175Z,83.6
2023-10-20T03:59:50.383Z,83.6
2023-10-20T04:00:51.510Z,83.6
2023-10-20T04:01:52.776Z,83.6
2023-10-20T04:02:54.387Z,83.6
2023-10-20T04:03:55.589Z,83.6
2023-10-20T04:04:56.725Z,83.6
2023-10-20T04:05:57.888Z,83.6
2023-10-20T04:06:59.075Z,83.6
2023-10-20T04:08:00.230Z,83.6
2023-10-20T04:09:01.411Z,83.6
2023-10-20T04:10:02.595Z,83.6
2023-10-20T04:11:03.763Z,83.6
2023-10-20T04:12:04.916Z,83.6
2023-10-20T04:13:08.665Z,83.6
2023-10-20T04:14:09.871Z,83.6
2023-10-20T04:15:11.051Z,83.6
2023-10-20T04:16:12.251Z,83.6
2023-10-20T04:17:13.494Z,83.6
2023-10-20T04:18:14.662Z,83.6
2023-10-20T04:19:15.836Z,83.6
2023-10-20T04:20:17.181Z,83.6
2023-10-20T04:21:18.323Z,83.6
2023-10-20T04:22:19.549Z,83.6
2023-10-20T04:23:20.755Z,83.6
2023-10-20T04:24:21.975Z,83.7
2023-10-20T04:25:23.124Z,83.7
2023-10-20T04:26:24.411Z,83.7
2023-10-20T04:27:25.573Z,83.7
2023-10-20T04:28:26.732Z,83.7
2023-10-20T04:29:27.959Z,83.7
2023-10-20T04:30:29.098Z,83.7
2023-10-20T04:31:30.326Z,83.7
2023-10-20T04:32:31.963Z,83.7
2023-10-20T04:33:33.242Z,83.7
2023-10-20T04:34:34.859Z,83.7
2023-10-20T04:35:36.019Z,83.7
2023-10-20T04:36:37.206Z,83.7
2023-10-20T04:37:38.365Z,83.7
2023-10-20T04:38:39.644Z,83.7
2023-10-20T04:39:40.794Z,83.8
2023-10-20T04:40:42.075Z,83.8
2023-10-20T04:41:43.392Z,83.8
2023-10-20T04:42:44.556Z,83.8
2023-10-20T04:43:45.722Z,83.8
2023-10-20T04:44:46.923Z,83.8
2023-10-20T04:45:48.170Z,83.8
2023-10-20T04:46:49.323Z,83.8
2023-10-20T04:47:50.781Z,83.8
2023-10-20T04:48:51.973Z,83.8
2023-10-20T04:49:53.160Z,83.8
2023-10-20T04:50:54.305Z,83.8
2023-10-20T04:51:55.482Z,83.8
2023-10-20T04:52:56.651Z,83.8
2023-10-20T04:53:57.799Z,83.8
2023-10-20T04:54:58.966Z,83.8
2023-10-20T04:56:00.140Z,83.8
2023-10-20T04:57:01.296Z,83.8
2023-10-20T04:58:02.462Z,83.8
2023-10-20T04:59:03.705Z,83.8
2023-10-20T05:00:04.831Z,83.8
2023-10-20T05:01:06.054Z,83.8
2023-10-20T05:02:07.245Z,83.8
2023-10-20T05:03:08.585Z,83.8
2023-10-20T05:04:09.823Z,83.8
2023-10-20T05:05:11.174Z,83.8
2023-10-20T05:06:12.314Z,83.8
2023-10-20T05:07:13.500Z,83.8
2023-10-20T05:08:14.798Z,83.8
2023-10-20T05:09:15.965Z,83.8
2023-10-20T05:10:17.113Z,83.8
2023-10-20T05:11:18.443Z,83.8
2023-10-20T05:12:19.600Z,83.8
2023-10-20T05:13:20.759Z,83.8
2023-10-20T05:14:21.993Z,83.8
2023-10-20T05:15:23.293Z,83.8
2023-10-20T05:16:24.583Z,83.8
2023-10-20T05:17:26.046Z,83.7
2023-10-20T05:18:27.325Z,83.7
2023-10-20T05:19:28.527Z,83.7
2023-10-20T05:20:29.840Z,83.7
2023-10-20T05:21:30.992Z,83.7
2023-10-20T05:22:32.159Z,83.7
2023-10-20T05:23:33.410Z,83.7
2023-10-20T05:24:35.509Z,83.7
2023-10-20T05:25:36.748Z,83.7
2023-10-20T05:26:38.052Z,83.7
2023-10-20T05:27:39.213Z,83.7
2023-10-20T05:28:40.553Z,83.7
2023-10-20T05:29:42.004Z,83.7
2023-10-20T05:30:43.157Z,83.7
2023-10-20T05:31:44.436Z,83.7
2023-10-20T05:32:45.744Z,83.7
2023-10-20T05:33:46.907Z,83.7
2023-10-20T05:34:48.067Z,83.7
2023-10-20T05:35:49.318Z,83.7
2023-10-20T05:36:50.459Z,83.8
2023-10-20T05:37:51.624Z,83.8
2023-10-20T05:38:52.808Z,83.8
2023-10-20T05:39:53.962Z,83.8
2023-10-20T05:40:55.151Z,83.8
2023-10-20T05:41:56.323Z,83.8
2023-10-20T05:42:57.495Z,83.8
2023-10-20T05:43:58.694Z,83.8
2023-10-20T05:45:03.448Z,83.8
2023-10-20T05:46:04.832Z,83.8
2023-10-20T05:47:06.195Z,83.8
2023-10-20T05:48:07.610Z,83.8
2023-10-20T05:49:08.855Z,83.8
2023-10-20T05:50:10.036Z,83.8
2023-10-20T05:51:11.244Z,83.8
2023-10-20T05:52:12.402Z,83.8
2023-10-20T05:53:13.624Z,83.8
2023-10-20T05:54:14.803Z,83.8
2023-10-20T05:55:15.991Z,83.8
2023-10-20T05:56:17.221Z,83.8
2023-10-20T05:57:18.378Z,83.8
2023-10-20T05:58:19.545Z,83.8
2023-10-20T05:59:20.711Z,83.8
2023-10-20T06:00:21.871Z,83.8
2023-10-20T06:01:23.064Z,83.8
2023-10-20T06:02:24.306Z,83.8
2023-10-20T06:03:25.766Z,83.8
2023-10-20T06:04:27.107Z,83.8
2023-10-20T06:05:28.328Z,83.8
2023-10-20T06:06:29.518Z,83.8
2023-10-20T06:07:30.660Z,83.8
2023-10-20T06:08:32.042Z,83.8
2023-10-20T06:09:33.372Z,83.8
2023-10-20T06:10:34.553Z,83.8
2023-10-20T06:11:35.793Z,83.8
2023-10-20T06:12:36.946Z,83.8
2023-10-20T06:13:38.141Z,83.8
2023-10-20T06:14:39.434Z,83.7
2023-10-20T06:15:40.582Z,83.7
2023-10-20T06:16:41.739Z,83.7
2023-10-20T06:17:43.048Z,83.7
2023-10-20T06:18:44.625Z,83.7
2023-10-20T06:19:45.769Z,83.7
2023-10-20T06:20:47.046Z,83.7
2023-10-20T06:21:48.222Z,83.7
2023-10-20T06:22:49.361Z,83.7
2023-10-20T06:23:50.663Z,83.7
2023-10-20T06:24:51.823Z,83.7
2023-10-20T06:25:52.985Z,83.7
2023-10-20T06:26:54.316Z,83.7
2023-10-20T06:27:55.508Z,83.7
2023-10-20T06:28:56.663Z,83.7
2023-10-20T06:29:57.884Z,83.7
2023-10-20T06:30:59.045Z,83.7
2023-10-20T06:32:00.461Z,83.7
2023-10-20T06:33:01.816Z,83.7
2023-10-20T06:34:03.064Z,83.7
2023-10-20T06:35:04.234Z,83.7
2023-10-20T06:36:05.393Z,83.7
2023-10-20T06:37:06.575Z,83.7
2023-10-20T06:38:07.751Z,83.7
2023-10-20T06:39:08.938Z,83.7
2023-10-20T06:40:10.106Z,83.7
2023-10-20T06:41:11.279Z,83.7
2023-10-20T06:42:12.474Z,83.7
2023-10-20T06:43:13.613Z,83.7
2023-10-20T06:44:14.897Z,83.7
2023-10-20T06:45:16.050Z,83.7
2023-10-20T06:46:17.362Z,83.7
2023-10-20T06:47:18.569Z,83.7
2023-10-20T06:48:19.774Z,83.7
2023-10-20T06:49:21.571Z,83.7
2023-10-20T06:50:22.791Z,83.7
2023-10-20T06:51:23.948Z,83.7
2023-10-20T06:52:25.133Z,83.6
2023-10-20T06:53:26.359Z,83.6
2023-10-20T06:54:27.566Z,83.7
2023-10-20T06:56:13.784Z,83.6
2023-10-20T06:57:16.405Z,83.7
2023-10-20T06:58:17.554Z,83.7
2023-10-20T06:59:18.852Z,83.7
2023-10-20T07:00:20.050Z,83.7
2023-10-20T07:01:21.310Z,83.7
2023-10-20T07:02:22.718Z,83.7
2023-10-20T07:03:24.020Z,83.7
2023-10-20T07:04:25.281Z,83.7
2023-10-20T07:05:26.540Z,83.7
2023-10-20T07:06:27.694Z,83.7
2023-10-20T07:07:28.887Z,83.7
2023-10-20T07:08:32.432Z,83.7
2023-10-20T07:09:33.569Z,83.7
2023-10-20T07:10:34.738Z,83.7
2023-10-20T07:11:35.950Z,83.7
2023-10-20T07:12:37.099Z,83.7
2023-10-20T07:13:38.268Z,83.7
2023-10-20T07:14:39.644Z,83.7
2023-10-20T07:15:40.848Z,83.7
2023-10-20T07:16:42.016Z,83.7
2023-10-20T07:17:43.449Z,83.7
2023-10-20T07:18:44.734Z,83.7
2023-10-20T07:19:45.903Z,83.7
2023-10-20T07:20:47.684Z,83.7
2023-10-20T07:21:48.830Z,83.7
2023-10-20T07:22:50.025Z,83.7
2023-10-20T07:23:51.279Z,83.7
2023-10-20T07:24:52.434Z,83.7
2023-10-20T07:25:53.598Z,83.7
2023-10-20T07:26:54.950Z,83.7
2023-10-20T07:27:58.970Z,83.7
2023-10-20T07:29:00.139Z,83.7
2023-10-20T07:30:01.406Z,83.7
2023-10-20T07:31:02.555Z,83.8
2023-10-20T07:32:03.733Z,83.8
2023-10-20T07:33:05.107Z,83.8
2023-10-20T07:34:06.431Z,83.8
2023-10-20T07:35:07.686Z,83.8
2023-10-20T07:36:08.858Z,83.8
2023-10-20T07:37:10.019Z,83.8
2023-10-20T07:38:11.570Z,83.8
2023-10-20T07:39:12.703Z,83.8
2023-10-20T07:40:13.888Z,83.8
2023-10-20T07:41:15.566Z,83.8
2023-10-20T07:42:16.772Z,83.8
2023-10-20T07:43:17.937Z,83.9
2023-10-20T07:44:19.124Z,83.9
2023-10-20T07:45:20.283Z,83.9
2023-10-20T07:46:21.476Z,83.9
2023-10-20T07:47:22.800Z,83.9
2023-10-20T07:48:24.092Z,83.9
2023-10-20T07:49:25.275Z,83.9
2023-10-20T07:50:26.963Z,83.9
2023-10-20T07:51:28.327Z,83.9
2023-10-20T07:52:29.487Z,83.9
2023-10-20T07:53:30.722Z,83.8
2023-10-20T07:54:31.999Z,83.8
2023-10-20T07:55:33.176Z,83.8
2023-10-20T07:56:34.430Z,83.8
2023-10-20T07:57:35.567Z,83.8
2023-10-20T07:58:36.733Z,83.8
2023-10-20T07:59:38.157Z,83.8
2023-10-20T08:00:39.309Z,83.8
2023-10-20T08:01:40.574Z,83.8
2023-10-20T08:02:41.989Z,83.9
2023-10-20T08:03:43.873Z,83.9
2023-10-20T08:04:45.794Z,83.9
2023-10-20T08:05:48.228Z,83.9
2023-10-20T08:06:50.773Z,83.9
2023-10-20T08:07:52.019Z,83.9
2023-10-20T08:08:53.264Z,83.9
2023-10-20T08:09:54.652Z,83.9
2023-10-20T08:10:55.914Z,83.9
2023-10-20T08:11:57.113Z,83.9
2023-10-20T08:12:58.380Z,83.9
2023-10-20T08:13:59.563Z,83.9
2023-10-20T08:15:00.732Z,83.9
2023-10-20T08:16:02.204Z,83.9
2023-10-20T08:17:03.450Z,83.9
2023-10-20T08:18:04.741Z,83.9
2023-10-20T08:19:05.927Z,83.9
2023-10-20T08:20:07.092Z,83.9
2023-10-20T08:21:08.273Z,83.9
2023-10-20T08:22:09.424Z,83.9
2023-10-20T08:23:11.028Z,83.9
2023-10-20T08:24:12.291Z,83.9
2023-10-20T08:25:13.445Z,83.9
2023-10-20T08:26:14.826Z,83.9
2023-10-20T08:27:15.981Z,83.9
2023-10-20T08:28:17.153Z,83.9
2023-10-20T08:29:18.453Z,83.9
2023-10-20T08:30:19.696Z,83.8
2023-10-20T08:31:20.932Z,83.8
2023-10-20T08:32:22.144Z,83.9
2023-10-20T08:33:23.325Z,83.9
2023-10-20T08:34:24.479Z,83.9
2023-10-20T08:35:25.778Z,83.9
2023-10-20T08:36:26.923Z,83.9
2023-10-20T08:37:28.097Z,83.9
2023-10-20T08:38:29.352Z,83.9
2023-10-20T08:39:30.625Z,83.9
2023-10-20T08:41:01.597Z,83.9
2023-10-20T08:42:12.669Z,83.9
2023-10-20T08:43:13.828Z,83.9
2023-10-20T08:44:15.130Z,83.9
2023-10-20T08:45:16.289Z,83.9
2023-10-20T08:46:17.589Z,83.9
2023-10-20T08:47:18.902Z,83.9
2023-10-20T08:48:20.282Z,83.9
2023-10-20T08:49:21.463Z,83.9
2023-10-20T08:50:22.671Z,83.9
2023-10-20T08:51:23.830Z,83.9
2023-10-20T08:52:25.000Z,83.9
2023-10-20T08:53:26.194Z,83.9
2023-10-20T08:54:27.358Z,83.9
2023-10-20T08:55:28.546Z,83.9
2023-10-20T08:56:29.777Z,83.9
2023-10-20T08:57:30.919Z,83.9
2023-10-20T08:58:32.379Z,83.9
2023-10-20T08:59:34.565Z,83.9
2023-10-20T09:00:58.762Z,83.9
2023-10-20T09:02:00.769Z,83.9
2023-10-20T09:03:02.302Z,83.9
2023-10-20T09:04:03.717Z,83.9
2023-10-20T09:05:05.025Z,83.9
2023-10-20T09:06:06.195Z,83.9
2023-10-20T09:07:07.356Z,83.9
2023-10-20T09:08:08.520Z,83.9
2023-10-20T09:09:09.720Z,83.8
2023-10-20T09:10:11.029Z,83.8
2023-10-20T09:11:12.288Z,83.8
2023-10-20T09:12:13.460Z,83.9
2023-10-20T09:13:14.923Z,83.8
2023-10-20T09:14:16.237Z,83.9
2023-10-20T09:15:17.393Z,83.9
2023-10-20T09:16:18.886Z,83.9
2023-10-20T09:17:20.101Z,83.9
2023-10-20T09:18:21.559Z,83.9
2023-10-20T09:19:22.753Z,83.9
2023-10-20T09:20:23.999Z,83.9
2023-10-20T09:21:25.157Z,83.9
2023-10-20T09:22:26.361Z,83.9
2023-10-20T09:23:27.515Z,83.9
2023-10-20T09:24:28.701Z,83.9
2023-10-20T09:25:29.874Z,83.9
2023-10-20T09:26:34.122Z,83.9
2023-10-20T09:27:36.220Z,83.9
2023-10-20T09:28:39.049Z,84
2023-10-20T09:29:40.304Z,84
2023-10-20T09:30:41.572Z,84
2023-10-20T09:31:42.794Z,84
2023-10-20T09:32:44.436Z,84
2023-10-20T09:33:45.603Z,84
2023-10-20T09:34:46.800Z,84
2023-10-20T09:35:48.061Z,84
2023-10-20T09:36:49.208Z,84
2023-10-20T09:37:50.572Z,84
2023-10-20T09:38:51.756Z,84
2023-10-20T09:39:52.932Z,84
2023-10-20T09:40:54.084Z,84
2023-10-20T09:41:55.625Z,84
2023-10-20T09:43:08.220Z,84
2023-10-20T09:44:16.508Z,84
2023-10-20T09:45:17.659Z,84
2023-10-20T09:46:18.874Z,84
2023-10-20T09:47:22.232Z,84
2023-10-20T09:48:23.567Z,84
2023-10-20T09:49:24.859Z,84
2023-10-20T09:50:26.168Z,84
2023-10-20T09:51:27.328Z,84
2023-10-20T09:52:31.010Z,84
2023-10-20T09:53:32.261Z,84
2023-10-20T09:54:33.456Z,84.1
2023-10-20T09:55:34.621Z,84.1
2023-10-20T09:56:35.903Z,84.1
2023-10-20T09:57:37.078Z,84.1
2023-10-20T09:58:38.219Z,84.1
2023-10-20T09:59:39.480Z,84.1
2023-10-20T10:00:40.775Z,84.1
2023-10-20T10:01:41.936Z,84.1
2023-10-20T10:02:43.534Z,84.1
2023-10-20T10:03:45.083Z,84.1
2023-10-20T10:04:49.127Z,84.1
2023-10-20T10:05:50.382Z,84.1
2023-10-20T10:06:51.546Z,84.1
2023-10-20T10:07:52.714Z,84.1
2023-10-20T10:08:53.923Z,84.1
2023-10-20T10:09:55.114Z,84.1
2023-10-20T10:10:56.271Z,84.2
2023-10-20T10:11:57.578Z,84.2
2023-10-20T10:12:58.770Z,84.2
2023-10-20T10:13:59.913Z,84.2
2023-10-20T10:15:01.314Z,84.2
2023-10-20T10:16:02.467Z,84.2
2023-10-20T10:17:03.691Z,84.2
2023-10-20T10:18:05.064Z,84.2
2023-10-20T10:19:06.246Z,84.2
2023-10-20T10:20:07.412Z,84.2
2023-10-20T10:21:08.581Z,84.2
2023-10-20T10:22:09.743Z,84.2
2023-10-20T10:23:10.908Z,84.2
2023-10-20T10:24:12.077Z,84.2
2023-10-20T10:25:13.240Z,84.1
2023-10-20T10:26:14.690Z,84.1
2023-10-20T10:27:16.174Z,84.2
2023-10-20T10:28:17.511Z,84.2
2023-10-20T10:29:18.725Z,84.2
2023-10-20T10:30:19.913Z,84.2
2023-10-20T10:31:21.172Z,84.2
2023-10-20T10:32:22.740Z,84.2
2023-10-20T10:33:24.858Z,84.2
2023-10-20T10:34:26.209Z,84.2
2023-10-20T10:35:27.614Z,84.2
2023-10-20T10:36:28.852Z,84.2
2023-10-20T10:37:31.616Z,84.2
2023-10-20T10:38:33.343Z,84.2
2023-10-20T10:39:35.488Z,84.2
2023-10-20T10:40:36.764Z,84.2
2023-10-20T10:41:38.006Z,84.3
2023-10-20T10:42:39.200Z,84.3
2023-10-20T10:43:40.356Z,84.3
2023-10-20T10:44:42.214Z,84.3
2023-10-20T10:45:43.379Z,84.3
2023-10-20T10:46:44.575Z,84.3
2023-10-20T10:47:46.125Z,84.2
2023-10-20T10:48:47.375Z,84.2
2023-10-20T10:49:48.531Z,84.2
2023-10-20T10:50:50.300Z,84.2
2023-10-20T10:51:51.919Z,84.2
2023-10-20T10:52:54.120Z,84.1
2023-10-20T10:53:55.333Z,84.1
2023-10-20T10:54:56.490Z,84.1
2023-10-20T10:55:57.660Z,84.1
2023-10-20T10:56:58.925Z,84.1
2023-10-20T10:58:00.068Z,84.1
2023-10-20T10:59:01.270Z,84.2
2023-10-20T11:00:03.221Z,84.2
2023-10-20T11:01:04.448Z,84.2
2023-10-20T11:02:05.617Z,84.2
2023-10-20T11:03:08.198Z,84.3
2023-10-20T11:04:09.744Z,84.3
2023-10-20T11:05:10.993Z,84.3
2023-10-20T11:06:12.160Z,84.3
2023-10-20T11:07:13.332Z,84.3
2023-10-20T11:08:19.163Z,84.3
2023-10-20T11:09:20.335Z,84.3
2023-10-20T11:10:21.504Z,84.3
2023-10-20T11:11:22.776Z,84.2
2023-10-20T11:12:23.990Z,84.2
2023-10-20T11:13:25.194Z,84.2
2023-10-20T11:14:26.570Z,84.2
2023-10-20T11:15:27.800Z,84.1
2023-10-20T11:16:29.130Z,84.1
2023-10-20T11:17:30.693Z,84.1
2023-10-20T11:18:32.128Z,84.1
2023-10-20T11:19:33.380Z,84.1
2023-10-20T11:20:34.650Z,84.1
2023-10-20T11:21:35.810Z,84
2023-10-20T11:22:37.054Z,84
2023-10-20T11:23:38.283Z,84
2023-10-20T11:24:39.859Z,84
2023-10-20T11:25:41.044Z,84
2023-10-20T11:26:42.261Z,84
2023-10-20T11:27:43.403Z,84
2023-10-20T11:28:44.568Z,84
2023-10-20T11:30:00.090Z,84
2023-10-20T11:31:01.490Z,84
2023-10-20T11:32:02.656Z,84
2023-10-20T11:33:04.054Z,84
2023-10-20T11:34:05.250Z,84
2023-10-20T11:35:06.440Z,83.9
2023-10-20T11:36:07.620Z,83.9
2023-10-20T11:37:08.777Z,83.9
2023-10-20T11:38:09.956Z,83.9
2023-10-20T11:39:14.726Z,83.8
2023-10-20T11:40:15.894Z,83.8
2023-10-20T11:41:19.456Z,83.8
2023-10-20T11:42:20.620Z,83.8
2023-10-20T11:43:21.827Z,83.8
2023-10-20T11:44:23.084Z,83.8
2023-10-20T11:45:24.331Z,83.8
2023-10-20T11:46:25.531Z,83.8
2023-10-20T11:47:26.865Z,83.8
2023-10-20T11:48:28.375Z,83.8
2023-10-20T11:49:29.583Z,83.7
2023-10-20T11:50:30.828Z,83.7
2023-10-20T11:51:32.016Z,83.7
2023-10-20T11:52:33.182Z,83.7
2023-10-20T11:53:34.387Z,83.6
2023-10-20T11:54:36.232Z,83.6
2023-10-20T11:55:37.455Z,83.6
2023-10-20T11:56:38.678Z,83.6
2023-10-20T11:57:39.845Z,83.6
2023-10-20T11:58:41.017Z,83.6
2023-10-20T11:59:42.246Z,83.5
2023-10-20T12:00:43.618Z,83.5
2023-10-20T12:01:44.874Z,83.5
2023-10-20T12:02:46.424Z,83.5
2023-10-20T12:03:48.009Z,83.5
2023-10-20T12:04:49.413Z,83.4
2023-10-20T12:05:50.616Z,83.4
2023-10-20T12:06:51.777Z,83.4
2023-10-20T12:07:52.965Z,83.4
2023-10-20T12:08:54.166Z,83.5
2023-10-20T12:09:55.316Z,83.5
2023-10-20T12:10:56.486Z,83.5
2023-10-20T12:11:57.672Z,83.5
2023-10-20T12:12:58.835Z,83.5
2023-10-20T12:14:00.016Z,83.5
2023-10-20T12:15:01.378Z,83.5
2023-10-20T12:16:02.761Z,83.5
2023-10-20T12:17:03.893Z,83.5
2023-10-20T12:18:05.303Z,83.4
2023-10-20T12:19:06.545Z,83.4
2023-10-20T12:20:07.767Z,83.4
2023-10-20T12:21:08.931Z,83.4
2023-10-20T12:22:10.106Z,83.3
2023-10-20T12:23:11.588Z,83.3
2023-10-20T12:24:12.828Z,83.3
2023-10-20T12:25:13.997Z,83.3
2023-10-20T12:26:15.163Z,83.3
2023-10-20T12:27:16.329Z,83.3
2023-10-20T12:28:20.533Z,83.2
2023-10-20T12:29:21.799Z,83.2
2023-10-20T12:30:22.960Z,83.2
2023-10-20T12:31:24.411Z,83.2
2023-10-20T12:32:25.771Z,83.2
2023-10-20T12:33:27.242Z,83.2
2023-10-20T12:34:28.411Z,83.2
2023-10-20T12:35:29.691Z,83.3
2023-10-20T12:36:30.849Z,83.2
2023-10-20T12:37:32.029Z,83.2
2023-10-20T12:38:33.235Z,83.2
2023-10-20T12:39:34.384Z,83.2
2023-10-20T12:40:35.585Z,83.2
2023-10-20T12:41:36.856Z,83.2
2023-10-20T12:42:38.025Z,83.2
2023-10-20T12:43:39.193Z,83.2
2023-10-20T12:44:40.554Z,83.2
2023-10-20T12:45:41.722Z,83.2
2023-10-20T12:46:43.009Z,83.2
2023-10-20T12:47:44.341Z,83.2
2023-10-20T12:48:45.851Z,83.2
2023-10-20T12:49:46.993Z,83.2
2023-10-20T12:50:48.440Z,83.2
2023-10-20T12:51:49.637Z,83.2
2023-10-20T12:52:50.804Z,83.2
2023-10-20T12:53:52.172Z,83.2
2023-10-20T12:54:53.331Z,83.2
2023-10-20T12:55:54.501Z,83.2
2023-10-20T12:56:55.803Z,83.2
2023-10-20T12:57:56.970Z,83.2
2023-10-20T12:58:58.144Z,83.2
2023-10-20T12:59:59.404Z,83.2
2023-10-20T13:01:00.594Z,83.2
2023-10-20T13:02:02.074Z,83.2
2023-10-20T13:03:03.562Z,83.2
2023-10-20T13:04:04.943Z,83.2
2023-10-20T13:05:06.131Z,83.2
2023-10-20T13:06:07.368Z,83.2
2023-10-20T13:07:08.610Z,83.2
2023-10-20T13:08:09.779Z,83.2
2023-10-20T13:09:10.941Z,83.2
2023-10-20T13:10:12.112Z,83.2
2023-10-20T13:11:13.282Z,83.2
2023-10-20T13:12:14.467Z,83.2
2023-10-20T13:13:18.491Z,83.2
2023-10-20T13:14:19.845Z,83.2
2023-10-20T13:15:21.040Z,83.2
2023-10-20T13:16:22.293Z,83.2
2023-10-20T13:17:26.174Z,83.2
2023-10-20T13:18:27.501Z,83.2
2023-10-20T13:19:28.672Z,83.2
2023-10-20T13:20:29.964Z,83.2
2023-10-20T13:21:31.126Z,83.2
2023-10-20T13:22:32.277Z,83.2
2023-10-20T13:23:33.472Z,83.2
2023-10-20T13:24:35.376Z,83.2
2023-10-20T13:25:36.787Z,83.2
2023-10-20T13:26:38.203Z,83.2
2023-10-20T13:27:39.416Z,83.2
2023-10-20T13:28:40.583Z,83.2
2023-10-20T13:29:41.757Z,83.2
2023-10-20T13:31:08.278Z,83.2
2023-10-20T13:32:09.820Z,83.2
2023-10-20T13:33:11.243Z,83.2
2023-10-20T13:34:12.511Z,83.2
2023-10-20T13:35:13.722Z,83.2
2023-10-20T13:36:19.603Z,83.2
2023-10-20T13:37:20.882Z,83.2
2023-10-20T13:38:33.770Z,83.2
2023-10-20T13:39:35.105Z,83.2
2023-10-20T13:40:36.396Z,83.2
2023-10-20T13:41:37.612Z,83.2
2023-10-20T13:42:38.856Z,83.2